Bei Facebook empfehlenBei Twitter postenGoogle plusPinterest

Das Wetter im Erzgebirge am 27.06.2017

Wetter und Klima am 27.06.2017 Holzhau im Erzgebirge (630m ü.NN)
Letzte gemessene Temperatur und Uhrzeit der Messung23:45:00 Uhr12.00 °C
Temperatur (Maximum / Höchstwert) und Uhrzeit der Messung12:00:00 Uhr23.90 °C
Temperatur (Minimum / Tiefstwert) und Uhrzeit der Messung03:00:008.10 °C
Errechneter Absolutwert der Temperaturschwankungen zwischen Tmin und Tmax des Tages15.80 K
Errechnete Tagesmitteltemperatur15.62604 °C
Gesamt - Niederschlag des Tages (in flüssiger Form)0.00 Liter / m²
Luftdruck (Maximum / Höchstwert) und Zeitpunkt der Messung00:30:00 Uhr1010.80 hPa
Luftdruck (Minimum / Tiefstwert) und Zeitpunkt der Messung23:45:00 Uhr1005.20 hPa
Errechneter Absolutwert der Luftdruckschwankungen des Tages5.60 hPa
Höchste gemessene Windgeschwindigkeit und Uhrzeit der Messung12:15:00 Uhr27.36 km/h
Errechnete Windhäufigkeit in Relation zu den Messwerten des Tages5.20833 %
Niedrigste Windkühle (Windchill) und Zeitpunkt der Messung03:00:00 Uhr8.10 °C
Taupunkt (Maximum / Höchstwert) und Uhrzeit der Messung16:45:00 Uhr15.30 °C
Taupunkt (Minimum / Tiefstwert) und Uhrzeit der Messung03:00:006.70 °C
Anzahl der automatisch eingelesenen Messwerte 96

Detaillierte Wetter- und Klima- Messwerte für den 27.06.2017 in Holzhau im Erzgebirge (630m ü.NN)
ZeitTemperaturLuftdruckRel. LuftfeuchteWindWindrichtungWindchillTaupunktNiederschlag l/m²
23:45:0012.00 °C1005.20 hPa87.00 %9.90 °C 
23:30:0012.40 °C1005.40 hPa87.00 %10.30 °C 
23:15:0012.90 °C1005.30 hPa85.00 %10.40 °C 
23:00:0013.60 °C1005.20 hPa85.00 %11.10 °C 
22:45:0014.20 °C1005.50 hPa84.00 %11.50 °C 
22:30:0014.90 °C1005.30 hPa85.00 %12.40 °C 
22:15:0015.30 °C1005.40 hPa84.00 %12.60 °C 
22:00:0015.40 °C1005.60 hPa84.00 %12.70 °C 
21:45:0015.50 °C1005.70 hPa84.00 %12.80 °C 
21:30:0015.90 °C1005.80 hPa82.00 %12.80 °C 
21:15:0016.10 °C1006.00 hPa81.00 %12.80 °C 
21:00:0016.40 °C1006.20 hPa81.00 %13.10 °C 
20:45:0016.70 °C1006.00 hPa81.00 %13.40 °C 
20:30:0017.20 °C1006.00 hPa80.00 %13.70 °C 
20:15:0017.50 °C1006.10 hPa78.00 %13.60 °C 
20:00:0017.60 °C1006.20 hPa78.00 %13.70 °C 
19:45:0017.80 °C1006.20 hPa78.00 %13.90 °C 
19:30:0017.80 °C1006.30 hPa78.00 %13.90 °C 
19:15:0017.90 °C1006.70 hPa77.00 %13.80 °C 
19:00:0018.20 °C1006.80 hPa77.00 %14.10 °C 
18:45:0018.30 °C1006.90 hPa77.00 %14.20 °C 
18:30:0018.60 °C1007.00 hPa76.00 %14.30 °C 
18:15:0018.70 °C1007.10 hPa77.00 %14.60 °C 
18:00:0018.70 °C1007.10 hPa77.00 %14.60 °C 
17:45:0018.70 °C1007.60 hPa78.00 %14.80 °C 
17:30:0018.40 °C1007.60 hPa79.00 %14.70 °C 
17:15:0018.40 °C1007.80 hPa79.00 %14.70 °C 
17:00:0018.60 °C1007.90 hPa80.00 %15.10 °C 
16:45:0018.40 °C1008.00 hPa82.00 %15.30 °C 
16:30:0018.10 °C1008.20 hPa82.00 %15.00 °C 
16:15:0017.80 °C1008.40 hPa83.00 %14.90 °C 
16:00:0017.90 °C1008.30 hPa82.00 %14.80 °C 
15:45:0017.80 °C1008.50 hPa83.00 %14.90 °C 
15:30:0017.60 °C1008.80 hPa80.00 %14.10 °C 
15:15:0017.90 °C1008.80 hPa78.00 %14.00 °C 
15:00:0017.90 °C1009.00 hPa78.00 %14.00 °C 
14:45:0018.30 °C1008.90 hPa74.00 %13.60 °C 
14:30:0018.90 °C1009.30 hPa74.00 %14.20 °C 
14:15:0018.90 °C1009.00 hPa75.00 %14.40 °C 
14:00:0018.60 °C1009.30 hPa75.00 %14.10 °C 
13:45:0018.50 °C1009.10 hPa74.00 %13.80 °C 
13:30:0018.40 °C1009.20 hPa74.00 %13.70 °C 
13:15:0018.40 °C1009.20 hPa71.00 %13.10 °C 
13:00:0019.40 °C1009.50 hPa67.00 %13.10 °C 
12:45:0021.10 °C1009.30 hPa65.00 %14.30 °C 
12:30:0022.80 °C1009.50 hPa60.00 %14.60 °C 
12:15:0023.60 °C1009.60 hPa58.00 %27.36 km/hW25.00 °C14.90 °C 
12:00:0023.90 °C1009.70 hPa58.00 %15.10 °C 
11:45:0023.50 °C1009.60 hPa60.00 %15.30 °C 
11:30:0022.40 °C1009.80 hPa62.00 %14.80 °C 
11:15:0021.70 °C1009.60 hPa62.00 %14.10 °C 
11:00:0021.50 °C1009.70 hPa63.00 %23.40 km/hSW22.60 °C14.20 °C 
10:45:0021.40 °C1009.70 hPa66.00 %14.80 °C 
10:30:0021.10 °C1009.70 hPa65.00 %14.30 °C 
10:15:0020.80 °C1009.80 hPa64.00 %13.70 °C 
10:00:0020.90 °C1009.80 hPa65.00 %14.10 °C 
09:45:0020.70 °C1009.60 hPa65.00 %13.90 °C 
09:30:0020.60 °C1009.70 hPa65.00 %13.80 °C 
09:15:0019.90 °C1009.60 hPa66.00 %13.40 °C 
09:00:0019.40 °C1009.60 hPa71.00 %14.00 °C 
08:45:0019.00 °C1009.60 hPa71.00 %13.60 °C 
08:30:0018.70 °C1009.50 hPa73.00 %13.80 °C 
08:15:0017.40 °C1009.70 hPa75.00 %12.90 °C 
08:00:0017.20 °C1009.70 hPa76.00 %12.90 °C 
07:45:0016.90 °C1009.60 hPa79.00 %13.20 °C 
07:30:0015.40 °C1009.50 hPa84.00 %12.70 °C 
07:15:0014.30 °C1009.50 hPa86.00 %12.00 °C 
07:00:0013.10 °C1009.60 hPa88.00 %11.20 °C 
06:45:0012.60 °C1009.60 hPa89.00 %10.80 °C 
06:30:0011.90 °C1009.70 hPa90.00 %10.30 °C 
06:15:0011.30 °C1009.70 hPa91.00 %9.90 °C 
06:00:0010.70 °C1009.90 hPa91.00 %9.30 °C 
05:45:0010.20 °C1009.80 hPa91.00 %8.80 °C 
05:30:0010.10 °C1009.70 hPa91.00 %8.70 °C 
05:15:009.90 °C1009.80 hPa91.00 %8.50 °C 
05:00:009.70 °C1009.90 hPa91.00 %8.30 °C 
04:45:009.40 °C1009.90 hPa92.00 %12.96 km/hOSO9.40 °C8.20 °C 
04:30:009.10 °C1010.10 hPa91.00 %7.70 °C 
04:15:009.00 °C1010.20 hPa92.00 %7.80 °C 
04:00:008.80 °C1010.20 hPa91.00 %7.40 °C 
03:45:008.90 °C1010.20 hPa91.00 %7.50 °C 
03:30:008.70 °C1010.30 hPa92.00 %7.50 °C 
03:15:008.20 °C1010.60 hPa91.00 %6.80 °C 
03:00:008.10 °C1010.50 hPa91.00 %6.70 °C 
02:45:008.30 °C1010.40 hPa90.00 %6.80 °C 
02:30:008.60 °C1010.30 hPa91.00 %15.48 km/hOSO8.60 °C7.20 °C 
02:15:008.60 °C1010.20 hPa90.00 %11.52 km/hSO8.60 °C7.10 °C 
02:00:008.90 °C1010.40 hPa90.00 %7.40 °C 
01:45:008.90 °C1010.50 hPa90.00 %7.40 °C 
01:30:009.00 °C1010.60 hPa89.00 %7.30 °C 
01:15:009.20 °C1010.50 hPa89.00 %7.50 °C 
01:00:009.30 °C1010.60 hPa89.00 %7.60 °C 
00:45:009.50 °C1010.70 hPa89.00 %7.80 °C 
00:30:009.60 °C1010.80 hPa87.00 %7.50 °C 
00:15:009.90 °C1010.80 hPa88.00 %8.00 °C 
00:00:009.90 °C1010.50 hPa87.00 %7.80 °C 

Permanenter Link zu dieser Seite: Wetter im Erzgebirge am 27.06.2017
Performance-Info: Die Erstellung der Seite / Statistik(en) / Tabelle(n) erforderte 5 Datenbankserver-Abfrage(n) und dauerte 98 Millisekunden. (Dieser Messwert ist von der Gesamt-Auslastung des Servers abhängig.)
Erzgebirge - Wetter | Erzgebirge - Wetter (Mobilgeräte) | Komplette Klimadatenbank